Terminal Aerodrome Forecast
Issued by NWS Wilmington, OH

Current Version | Previous Version | Graphics & Text | Print | Product List | Glossary On
Versions: 1 2 3 4 5 6 7 8 9 10 11 12 13 14 15 16 17 18
000
FTUS41 KILN 041700 RRA
TAFDAY
TAF
KDAY 041743Z 0418/0518 25014KT P6SM -SHRA SCT050 OVC100
     FM042300 22010KT 5SM -SHRA VCTS BKN050CB OVC150
     FM050200 22007KT 5SM -SHRA BKN050 OVC150
     FM050700 22007KT P6SM -SHRA BKN050 OVC120
     FM051300 23009KT P6SM SCT050 BKN120=

USA.gov is the U.S. government's official web portal to all federal, state and local government web resources and services.